Terminal Aerodrome Forecast
Issued by NWS

Home | Current Version | Previous Version | Text Only | Print | Product List | Glossary On
Versions: 1 2 3 4 5 6 7 8 9 10 11 12 13 14
128
FTUS46 KMTR 132352
TAFSJC
TAF
KSJC 132352Z 1400/1424 31012KT P6SM FEW250
     FM140400 31004KT P6SM FEW008 FEW250
      TEMPO 1412/1416 SCT008 BKN250
     FM141700 30005KT P6SM FEW250
     FM142100 32010G18KT P6SM SKC=

USA.gov is the U.S. government's official web portal to all federal, state and local government web resources and services.